createdAt,value
2018-10-15T00:00:15.890Z,13.77
2018-10-15T00:02:44.466Z,10.93
2018-10-15T00:05:12.637Z,10.80
2018-10-15T00:07:40.823Z,9.53
2018-10-15T00:10:09.122Z,10.90
2018-10-15T00:12:37.457Z,10.13
2018-10-15T00:15:20.540Z,10.63
2018-10-15T00:17:48.854Z,12.90
2018-10-15T00:20:17.033Z,11.07
2018-10-15T00:22:45.454Z,9.33
2018-10-15T00:25:14.183Z,10.13
2018-10-15T00:27:42.770Z,10.73
2018-10-15T00:30:11.955Z,9.20
2018-10-15T00:32:40.994Z,8.80
2018-10-15T00:35:10.363Z,9.40
2018-10-15T00:37:39.320Z,9.30
2018-10-15T00:40:07.649Z,8.93
2018-10-15T00:42:36.683Z,11.00
2018-10-15T00:45:06.118Z,10.27
2018-10-15T00:47:34.299Z,10.23
2018-10-15T00:50:02.757Z,10.40
2018-10-15T00:52:30.933Z,11.80
2018-10-15T00:54:59.114Z,9.27
2018-10-15T00:57:27.286Z,10.73
2018-10-15T00:59:55.463Z,13.73
2018-10-15T01:02:23.752Z,12.57
2018-10-15T01:04:52.055Z,10.90
2018-10-15T01:07:20.643Z,10.13
2018-10-15T01:09:48.998Z,8.90
2018-10-15T01:12:17.242Z,11.40
2018-10-15T01:14:45.534Z,11.97
2018-10-15T01:17:13.698Z,8.87
2018-10-15T01:19:41.884Z,10.60
2018-10-15T01:22:10.042Z,11.40
2018-10-15T01:24:38.241Z,8.10
2018-10-15T01:27:06.461Z,9.60
2018-10-15T01:29:34.669Z,13.20
2018-10-15T01:32:02.846Z,10.73
2018-10-15T01:34:31.355Z,10.07
2018-10-15T01:36:59.826Z,11.00
2018-10-15T01:39:28.130Z,12.33
2018-10-15T01:41:56.755Z,10.20
2018-10-15T01:44:25.169Z,12.40
2018-10-15T01:46:53.441Z,10.70
2018-10-15T01:49:21.614Z,10.60
2018-10-15T01:51:49.899Z,9.67
2018-10-15T01:54:18.121Z,10.30
2018-10-15T01:56:46.612Z,11.20
2018-10-15T01:59:14.855Z,9.73
2018-10-15T02:01:43.634Z,11.30
2018-10-15T02:04:12.730Z,9.67
2018-10-15T02:06:41.002Z,11.60
2018-10-15T02:09:10.542Z,9.70
2018-10-15T02:11:38.773Z,8.97
2018-10-15T02:14:07.727Z,9.70
2018-10-15T02:16:36.054Z,9.90
2018-10-15T02:19:04.367Z,10.70
2018-10-15T02:21:32.910Z,11.50
2018-10-15T02:24:01.539Z,14.00
2018-10-15T02:26:29.786Z,10.63
2018-10-15T02:28:57.979Z,8.53
2018-10-15T02:31:26.407Z,10.83
2018-10-15T02:33:54.574Z,10.43
2018-10-15T02:36:22.772Z,13.93
2018-10-15T02:38:50.965Z,10.80
2018-10-15T02:41:19.162Z,9.60
2018-10-15T02:43:47.334Z,13.67
2018-10-15T02:46:15.742Z,10.87
2018-10-15T02:48:44.122Z,9.57
2018-10-15T02:51:12.314Z,10.53
2018-10-15T02:53:40.705Z,11.53
2018-10-15T02:56:08.927Z,12.73
2018-10-15T02:58:37.108Z,9.27
2018-10-15T03:01:05.649Z,12.13
2018-10-15T03:03:33.831Z,11.00
2018-10-15T03:06:03.580Z,11.53
2018-10-15T03:08:31.793Z,11.23
2018-10-15T03:10:59.977Z,13.67
2018-10-15T03:13:28.169Z,13.30
2018-10-15T03:15:56.378Z,11.73
2018-10-15T03:18:24.601Z,11.57
2018-10-15T03:20:52.805Z,11.07
2018-10-15T03:23:21.017Z,12.43
2018-10-15T03:25:49.189Z,9.83
2018-10-15T03:28:17.352Z,9.47
2018-10-15T03:30:45.588Z,13.30
2018-10-15T03:33:13.760Z,11.47
2018-10-15T03:35:42.266Z,9.63
2018-10-15T03:38:10.519Z,9.60
2018-10-15T03:40:38.698Z,11.20
2018-10-15T03:43:07.346Z,9.93
2018-10-15T03:45:35.566Z,9.20
2018-10-15T03:48:03.745Z,16.00
2018-10-15T03:50:31.939Z,10.17
2018-10-15T03:53:00.105Z,11.70
2018-10-15T03:55:28.334Z,12.50
2018-10-15T03:57:56.506Z,12.13
2018-10-15T04:00:24.713Z,9.93
2018-10-15T04:02:53.279Z,10.63
2018-10-15T04:05:21.540Z,9.00
2018-10-15T04:07:50.122Z,11.50
2018-10-15T04:10:18.355Z,10.30
2018-10-15T04:12:46.591Z,12.23
2018-10-15T04:15:14.790Z,12.70
2018-10-15T04:17:42.981Z,12.00
2018-10-15T04:20:11.158Z,13.53
2018-10-15T04:22:45.437Z,13.13
2018-10-15T04:25:14.017Z,9.67
2018-10-15T04:27:42.418Z,13.80
2018-10-15T04:30:15.198Z,12.70
2018-10-15T04:32:43.762Z,9.30
2018-10-15T04:35:12.331Z,10.13
2018-10-15T04:37:41.270Z,8.97
2018-10-15T04:40:11.302Z,12.37
2018-10-15T04:42:40.482Z,10.87
2018-10-15T04:45:09.801Z,13.10
2018-10-15T04:47:38.050Z,11.00
2018-10-15T04:50:06.562Z,12.20
2018-10-15T04:52:34.750Z,10.53
2018-10-15T04:55:03.221Z,11.80
2018-10-15T04:57:31.572Z,9.23
2018-10-15T04:59:59.853Z,10.13
2018-10-15T05:02:28.101Z,11.23
2018-10-15T05:04:56.303Z,10.80
2018-10-15T05:07:24.742Z,10.60
2018-10-15T05:09:52.939Z,11.83
2018-10-15T05:12:21.420Z,12.37
2018-10-15T05:14:50.614Z,10.30
2018-10-15T05:17:19.375Z,12.23
2018-10-15T05:19:48.056Z,10.63
2018-10-15T05:22:16.384Z,13.60
2018-10-15T05:24:44.816Z,12.00
2018-10-15T05:27:13.005Z,11.83
2018-10-15T05:29:41.415Z,14.03
2018-10-15T05:32:09.759Z,9.90
2018-10-15T05:34:38.283Z,11.50
2018-10-15T05:37:06.545Z,13.27
2018-10-15T05:39:34.797Z,15.40
2018-10-15T05:42:03.267Z,11.33
2018-10-15T05:44:31.449Z,12.10
2018-10-15T05:46:59.684Z,14.40
2018-10-15T05:49:27.813Z,12.07
2018-10-15T05:51:56.049Z,10.50
2018-10-15T05:57:16.669Z,12.97
2018-10-15T05:59:44.885Z,17.67
2018-10-15T06:04:46.637Z,13.70
2018-10-15T06:07:14.822Z,11.37
2018-10-15T06:09:43.027Z,10.63
2018-10-15T06:12:11.489Z,11.80
2018-10-15T06:14:39.639Z,10.50
2018-10-15T06:17:07.872Z,12.60
2018-10-15T06:19:36.114Z,12.03
2018-10-15T06:22:04.850Z,11.00
2018-10-15T06:24:33.082Z,15.00
2018-10-15T06:27:01.279Z,8.23
2018-10-15T06:29:29.484Z,12.90
2018-10-15T06:31:57.683Z,12.03
2018-10-15T06:34:26.218Z,10.80
2018-10-15T06:36:54.407Z,11.50
2018-10-15T06:39:22.772Z,16.43
2018-10-15T06:41:50.931Z,10.23
2018-10-15T06:44:19.383Z,13.10
2018-10-15T06:46:47.646Z,14.00
2018-10-15T06:49:15.961Z,13.67
2018-10-15T06:51:44.217Z,10.60
2018-10-15T06:54:12.861Z,13.83
2018-10-15T06:56:41.220Z,15.53
2018-10-15T06:59:09.670Z,10.60
2018-10-15T07:01:37.834Z,14.00
2018-10-15T07:04:06.290Z,13.50
2018-10-15T07:06:34.503Z,11.00
2018-10-15T07:09:02.775Z,15.03
2018-10-15T07:11:31.006Z,11.80
2018-10-15T07:13:59.202Z,11.70
2018-10-15T07:16:27.402Z,14.17
2018-10-15T07:18:55.817Z,14.00
2018-10-15T07:21:24.105Z,11.47
2018-10-15T07:23:52.333Z,15.43
2018-10-15T07:26:20.557Z,11.60
2018-10-15T07:28:48.717Z,11.00
2018-10-15T07:31:17.135Z,12.57
2018-10-15T07:33:45.508Z,12.70
2018-10-15T07:36:13.652Z,16.30
2018-10-15T07:38:41.798Z,19.93
2018-10-15T07:41:10.050Z,12.90
2018-10-15T07:43:38.307Z,13.23
2018-10-15T07:46:06.960Z,13.37
2018-10-15T07:48:35.110Z,13.40
2018-10-15T07:51:03.335Z,18.93
2018-10-15T07:53:31.803Z,12.80
2018-10-15T07:56:00.116Z,11.20
2018-10-15T07:58:28.246Z,12.70
2018-10-15T08:00:56.444Z,12.10
2018-10-15T08:03:24.640Z,14.80
2018-10-15T08:05:52.827Z,13.37
2018-10-15T08:08:21.100Z,13.77
2018-10-15T08:10:49.225Z,16.80
2018-10-15T08:13:17.446Z,22.73
2018-10-15T08:15:45.849Z,12.93
2018-10-15T08:18:13.913Z,12.67
2018-10-15T08:20:42.274Z,17.93
2018-10-15T08:23:10.409Z,14.40
2018-10-15T08:25:38.658Z,16.37
2018-10-15T08:28:07.100Z,14.47
2018-10-15T08:30:35.234Z,17.10
2018-10-15T08:33:03.462Z,18.03
2018-10-15T08:35:31.741Z,15.33
2018-10-15T08:38:00.022Z,16.87
2018-10-15T08:40:28.224Z,20.67
2018-10-15T08:42:56.455Z,15.30
2018-10-15T08:45:24.904Z,18.73
2018-10-15T08:47:53.533Z,16.70
2018-10-15T08:50:21.830Z,16.50
2018-10-15T08:52:51.032Z,25.07
2018-10-15T08:55:19.414Z,22.97
2018-10-15T08:57:47.910Z,19.13
2018-10-15T09:00:19.558Z,18.27
2018-10-15T09:02:48.195Z,15.70
2018-10-15T09:05:16.664Z,17.50
2018-10-15T09:07:45.444Z,19.00
2018-10-15T09:10:14.632Z,14.87
2018-10-15T09:12:42.919Z,13.60
2018-10-15T09:15:16.524Z,17.63
2018-10-15T09:17:44.777Z,16.30
2018-10-15T09:20:13.263Z,15.07
2018-10-15T09:22:42.789Z,14.43
2018-10-15T09:25:12.669Z,13.80
2018-10-15T09:27:41.249Z,12.97
2018-10-15T09:30:11.473Z,14.00
2018-10-15T09:32:40.147Z,16.77
2018-10-15T09:35:09.877Z,14.13
2018-10-15T09:37:38.359Z,20.70
2018-10-15T09:40:07.951Z,14.43
2018-10-15T09:42:35.993Z,12.87
2018-10-15T09:45:04.393Z,17.80
2018-10-15T09:47:32.492Z,19.30
2018-10-15T09:50:00.760Z,14.00
2018-10-15T09:52:28.829Z,17.73
2018-10-15T09:54:57.410Z,16.37
2018-10-15T09:57:25.516Z,14.60
2018-10-15T09:59:53.681Z,12.57
2018-10-15T10:02:22.057Z,17.10
2018-10-15T10:04:50.245Z,15.10
2018-10-15T10:07:18.395Z,13.27
2018-10-15T10:09:46.794Z,16.83
2018-10-15T10:12:15.001Z,11.83
2018-10-15T10:14:43.342Z,15.93
2018-10-15T10:17:11.501Z,15.50
2018-10-15T10:19:39.661Z,14.67
2018-10-15T10:22:08.082Z,14.27
2018-10-15T10:24:36.243Z,16.90
2018-10-15T10:27:04.617Z,12.60
2018-10-15T10:29:32.701Z,22.47
2018-10-15T10:32:00.891Z,12.93
2018-10-15T10:35:48.079Z,18.33
2018-10-15T10:38:22.791Z,16.20
2018-10-15T10:40:51.233Z,14.37
2018-10-15T10:43:19.378Z,14.10
2018-10-15T10:45:47.550Z,15.87
2018-10-15T10:48:15.746Z,12.87
2018-10-15T10:50:44.150Z,16.50
2018-10-15T10:53:12.313Z,13.50
2018-10-15T10:55:40.489Z,17.10
2018-10-15T10:58:09.070Z,12.10
2018-10-15T11:00:37.234Z,14.30
2018-10-15T11:03:05.598Z,13.53
2018-10-15T11:05:33.893Z,12.83
2018-10-15T11:08:02.077Z,14.90
2018-10-15T11:10:30.170Z,14.10
2018-10-15T11:12:58.342Z,12.50
2018-10-15T11:15:26.517Z,17.93
2018-10-15T11:17:54.703Z,11.10
2018-10-15T11:20:22.881Z,15.43
2018-10-15T11:22:51.086Z,11.70
2018-10-15T11:25:21.731Z,12.93
2018-10-15T11:27:50.057Z,12.17
2018-10-15T11:30:18.205Z,15.13
2018-10-15T11:32:46.404Z,13.07
2018-10-15T11:35:14.566Z,14.50
2018-10-15T11:37:42.745Z,13.77
2018-10-15T11:40:11.176Z,9.97
2018-10-15T11:42:40.474Z,12.00
2018-10-15T11:45:09.145Z,9.93
2018-10-15T11:47:37.342Z,11.57
2018-10-15T11:50:05.787Z,14.37
2018-10-15T11:52:34.114Z,11.13
2018-10-15T11:55:02.298Z,12.63
2018-10-15T11:57:30.731Z,14.40
2018-10-15T11:59:58.898Z,12.97
2018-10-15T12:02:27.110Z,16.53
2018-10-15T12:04:55.704Z,12.57
2018-10-15T12:07:24.465Z,9.90
2018-10-15T12:09:52.675Z,12.63
2018-10-15T12:12:20.830Z,14.30
2018-10-15T12:14:49.013Z,12.70
2018-10-15T12:17:17.423Z,14.40
2018-10-15T12:19:45.620Z,12.87
2018-10-15T12:22:13.798Z,11.93
2018-10-15T12:24:41.966Z,12.67
2018-10-15T12:27:10.164Z,13.77
2018-10-15T12:29:38.433Z,12.80
2018-10-15T12:32:06.551Z,12.50
2018-10-15T12:34:34.739Z,13.47
2018-10-15T12:37:03.124Z,13.90
2018-10-15T12:39:31.302Z,14.57
2018-10-15T12:41:59.492Z,9.53
2018-10-15T12:44:27.690Z,11.50
2018-10-15T12:46:55.838Z,11.37
2018-10-15T12:49:24.051Z,12.93
2018-10-15T12:51:52.214Z,15.97
2018-10-15T12:54:20.399Z,12.53
2018-10-15T12:56:48.582Z,10.53
2018-10-15T12:59:16.978Z,14.80
2018-10-15T13:01:45.150Z,11.47
2018-10-15T13:04:13.569Z,12.40
2018-10-15T13:06:41.714Z,10.37
2018-10-15T13:09:10.111Z,9.50
2018-10-15T13:11:39.013Z,11.77
2018-10-15T13:14:07.474Z,11.83
2018-10-15T13:16:35.700Z,15.23
2018-10-15T13:19:03.916Z,12.60
2018-10-15T13:21:32.447Z,12.90
2018-10-15T13:24:00.690Z,14.40
2018-10-15T13:26:29.159Z,13.23
2018-10-15T13:28:57.265Z,14.13
2018-10-15T13:31:25.425Z,14.60
2018-10-15T13:33:53.599Z,12.23
2018-10-15T13:36:21.767Z,12.20
2018-10-15T13:38:49.999Z,9.40
2018-10-15T13:41:18.178Z,15.77
2018-10-15T13:43:46.362Z,13.10
2018-10-15T13:46:14.542Z,10.80
2018-10-15T13:48:43.142Z,15.10
2018-10-15T13:51:11.318Z,16.80
2018-10-15T13:53:39.518Z,11.40
2018-10-15T13:56:07.697Z,10.67
2018-10-15T13:58:35.862Z,15.30
2018-10-15T14:01:04.023Z,12.03
2018-10-15T14:03:32.410Z,11.73
2018-10-15T14:06:00.586Z,10.63
2018-10-15T14:08:28.758Z,12.73
2018-10-15T14:10:57.158Z,11.23
2018-10-15T14:13:25.558Z,12.67
2018-10-15T14:15:53.957Z,14.07
2018-10-15T14:18:22.325Z,10.07
2018-10-15T14:20:50.729Z,11.93
2018-10-15T14:23:18.924Z,9.37
2018-10-15T14:25:47.090Z,10.27
2018-10-15T14:28:15.250Z,14.97
2018-10-15T14:30:43.421Z,9.13
2018-10-15T14:33:11.586Z,14.13
2018-10-15T14:35:39.767Z,10.30
2018-10-15T14:38:07.942Z,9.73
2018-10-15T14:40:36.129Z,11.80
2018-10-15T14:43:04.322Z,12.20
2018-10-15T14:45:32.498Z,15.03
2018-10-15T14:48:00.665Z,12.10
2018-10-15T14:50:28.862Z,12.37
2018-10-15T14:52:57.036Z,11.70
2018-10-15T14:55:25.242Z,16.50
2018-10-15T14:57:53.420Z,12.03
2018-10-15T15:00:21.785Z,13.23
2018-10-15T15:02:50.037Z,13.60
2018-10-15T15:05:18.171Z,10.60
2018-10-15T15:07:46.434Z,11.70
2018-10-15T15:10:26.191Z,10.87
2018-10-15T15:13:05.666Z,12.30
2018-10-15T15:15:33.789Z,9.83
2018-10-15T15:18:02.174Z,10.90
2018-10-15T15:20:30.346Z,8.13
2018-10-15T15:22:58.525Z,9.37
2018-10-15T15:25:26.729Z,14.70
2018-10-15T15:27:55.178Z,11.03
2018-10-15T15:30:23.530Z,10.07
2018-10-15T15:32:51.991Z,10.63
2018-10-15T15:35:20.088Z,16.43
2018-10-15T15:37:48.273Z,54.20
2018-10-15T15:40:16.461Z,55.07
2018-10-15T15:42:44.651Z,45.40
2018-10-15T15:45:14.197Z,47.27
2018-10-15T15:47:42.359Z,29.10
2018-10-15T15:50:11.078Z,23.93
2018-10-15T15:52:39.570Z,20.93
2018-10-15T15:55:08.541Z,19.50
2018-10-15T15:57:36.702Z,16.07
2018-10-15T16:00:06.477Z,17.83
2018-10-15T16:02:34.644Z,14.07
2018-10-15T16:05:02.852Z,14.00
2018-10-15T16:07:31.035Z,19.63
2018-10-15T16:09:59.617Z,12.33
2018-10-15T16:12:28.885Z,12.27
2018-10-15T16:14:57.614Z,12.20
2018-10-15T16:17:26.057Z,15.03
2018-10-15T16:19:54.305Z,13.00
2018-10-15T16:22:22.502Z,14.20
2018-10-15T16:24:50.661Z,14.07
2018-10-15T16:30:09.626Z,14.10
2018-10-15T16:32:38.597Z,12.13
2018-10-15T16:35:07.323Z,15.47
2018-10-15T16:37:35.531Z,14.63
2018-10-15T16:40:04.382Z,13.97
2018-10-15T16:42:32.698Z,16.07
2018-10-15T16:45:01.099Z,12.90
2018-10-15T16:47:29.310Z,16.50
2018-10-15T16:49:57.777Z,15.90
2018-10-15T16:52:25.957Z,15.50
2018-10-15T16:54:54.152Z,20.17
2018-10-15T16:57:22.364Z,14.23
2018-10-15T16:59:50.749Z,13.80
2018-10-15T17:02:18.949Z,11.40
2018-10-15T17:04:47.426Z,16.13
2018-10-15T17:07:15.846Z,12.20
2018-10-15T17:09:44.075Z,18.93
2018-10-15T17:12:12.564Z,13.27
2018-10-15T17:14:40.674Z,14.50
2018-10-15T17:17:08.829Z,16.13
2018-10-15T17:19:37.026Z,17.10
2018-10-15T17:22:05.501Z,15.10
2018-10-15T17:24:33.690Z,18.83
2018-10-15T17:27:01.888Z,15.53
2018-10-15T17:29:30.088Z,14.60
2018-10-15T17:31:58.241Z,12.87
2018-10-15T17:34:26.429Z,12.17
2018-10-15T17:36:54.627Z,13.00
2018-10-15T17:39:22.826Z,12.03
2018-10-15T17:41:51.029Z,18.10
2018-10-15T17:44:19.211Z,14.80
2018-10-15T17:46:47.412Z,24.13
2018-10-15T17:49:15.825Z,14.83
2018-10-15T17:51:43.993Z,15.50
2018-10-15T17:54:12.174Z,19.23
2018-10-15T17:56:40.425Z,16.70
2018-10-15T17:59:08.630Z,17.10
2018-10-15T18:01:36.817Z,13.30
2018-10-15T18:04:05.264Z,18.17
2018-10-15T18:06:33.498Z,10.53
2018-10-15T18:09:02.011Z,18.23
2018-10-15T18:11:30.494Z,14.73
2018-10-15T18:13:58.693Z,14.03
2018-10-15T18:16:27.178Z,22.13
2018-10-15T18:18:55.382Z,15.70
2018-10-15T18:21:23.604Z,12.90
2018-10-15T18:23:52.257Z,12.87
2018-10-15T18:26:20.437Z,15.43
2018-10-15T18:28:48.650Z,13.77
2018-10-15T18:31:16.845Z,14.87
2018-10-15T18:33:45.022Z,14.83
2018-10-15T18:39:03.996Z,18.90
2018-10-15T18:41:32.502Z,16.80
2018-10-15T18:44:00.639Z,17.13
2018-10-15T18:46:29.130Z,15.70
2018-10-15T18:51:47.776Z,15.57
2018-10-15T18:54:15.966Z,15.00
2018-10-15T18:56:44.153Z,13.97
2018-10-15T18:59:12.358Z,11.50
2018-10-15T19:01:40.567Z,17.60
2018-10-15T19:04:08.769Z,17.60
2018-10-15T19:06:37.071Z,15.40
2018-10-15T19:09:07.491Z,12.97
2018-10-15T19:11:35.689Z,16.20
2018-10-15T19:14:03.923Z,17.03
2018-10-15T19:16:32.129Z,13.93
2018-10-15T19:19:00.348Z,15.63
2018-10-15T19:24:19.534Z,12.63
2018-10-15T19:26:47.723Z,16.53
2018-10-15T19:29:15.921Z,16.00
2018-10-15T19:31:44.137Z,13.77
2018-10-15T19:34:12.345Z,17.97
2018-10-15T19:36:40.648Z,15.50
2018-10-15T19:39:10.342Z,17.73
2018-10-15T19:41:38.622Z,13.50
2018-10-15T19:44:07.306Z,17.33
2018-10-15T19:46:35.532Z,13.07
2018-10-15T19:49:03.745Z,15.17
2018-10-15T19:51:32.277Z,16.43
2018-10-15T19:54:01.014Z,12.70
2018-10-15T19:56:29.210Z,17.07
2018-10-15T19:58:57.421Z,14.70
2018-10-15T20:01:25.619Z,12.83
2018-10-15T20:03:53.956Z,13.70
2018-10-15T20:06:22.182Z,17.40
2018-10-15T20:08:50.614Z,13.13
2018-10-15T20:11:18.826Z,12.70
2018-10-15T20:13:47.014Z,12.70
2018-10-15T20:16:15.278Z,14.10
2018-10-15T20:18:43.474Z,13.50
2018-10-15T20:21:11.743Z,13.00
2018-10-15T20:23:39.930Z,14.57
2018-10-15T20:26:08.285Z,12.97
2018-10-15T20:28:36.746Z,12.27
2018-10-15T20:31:04.929Z,11.67
2018-10-15T20:33:33.190Z,17.03
2018-10-15T20:36:01.395Z,14.10
2018-10-15T20:38:29.578Z,10.30
2018-10-15T20:40:57.833Z,15.17
2018-10-15T20:43:26.038Z,11.60
2018-10-15T20:45:54.293Z,15.70
2018-10-15T20:48:22.595Z,15.80
2018-10-15T20:50:50.728Z,16.93
2018-10-15T20:53:19.005Z,14.00
2018-10-15T20:55:47.230Z,12.87
2018-10-15T20:58:15.429Z,13.80
2018-10-15T21:00:43.637Z,11.67
2018-10-15T21:03:11.822Z,17.47
2018-10-15T21:05:40.113Z,11.60
2018-10-15T21:08:08.339Z,11.10
2018-10-15T21:10:36.578Z,12.53
2018-10-15T21:13:04.866Z,12.63
2018-10-15T21:15:33.086Z,14.00
2018-10-15T21:18:01.302Z,13.03
2018-10-15T21:20:29.545Z,11.50
2018-10-15T21:22:57.754Z,11.70
2018-10-15T21:25:25.977Z,11.10
2018-10-15T21:27:54.291Z,11.60
2018-10-15T21:30:23.946Z,11.53
2018-10-15T21:32:52.214Z,10.03
2018-10-15T21:35:20.435Z,13.90
2018-10-15T21:37:49.238Z,11.97
2018-10-15T21:40:17.513Z,11.83
2018-10-15T21:42:45.734Z,12.53
2018-10-15T21:45:14.308Z,11.93
2018-10-15T21:47:42.811Z,12.30
2018-10-15T21:50:12.022Z,12.10
2018-10-15T21:52:40.431Z,10.60
2018-10-15T21:55:09.790Z,10.40
2018-10-15T21:57:38.071Z,10.70
2018-10-15T22:00:13.661Z,11.43
2018-10-15T22:02:42.083Z,14.13
2018-10-15T22:05:10.613Z,13.93
2018-10-15T22:07:39.471Z,13.73
2018-10-15T22:10:12.951Z,15.10
2018-10-15T22:12:42.283Z,21.50
2018-10-15T22:15:11.661Z,11.80
2018-10-15T22:17:40.593Z,13.70
2018-10-15T22:20:09.958Z,13.70
2018-10-15T22:22:38.249Z,18.00
2018-10-15T22:25:07.604Z,14.80
2018-10-15T22:27:35.828Z,14.33
2018-10-15T22:30:04.621Z,24.07
2018-10-15T22:32:32.862Z,14.10
2018-10-15T22:35:01.118Z,13.93
2018-10-15T22:37:29.356Z,13.67
2018-10-15T22:39:57.570Z,15.00
2018-10-15T22:42:25.776Z,12.10
2018-10-15T22:44:54.309Z,17.10
2018-10-15T22:47:22.582Z,12.97
2018-10-15T22:49:50.778Z,14.27
2018-10-15T22:52:19.023Z,13.60
2018-10-15T22:54:47.254Z,19.10
2018-10-15T22:57:15.525Z,13.67
2018-10-15T22:59:43.749Z,14.10
2018-10-15T23:02:12.013Z,14.97
2018-10-15T23:04:40.242Z,13.70
2018-10-15T23:07:09.134Z,16.47
2018-10-15T23:09:37.361Z,13.17
2018-10-15T23:12:05.657Z,13.50
2018-10-15T23:14:34.055Z,13.10
2018-10-15T23:17:02.275Z,11.53
2018-10-15T23:19:30.510Z,12.47
2018-10-15T23:21:58.806Z,14.17
2018-10-15T23:24:27.246Z,12.20
2018-10-15T23:26:55.458Z,15.30
2018-10-15T23:29:23.735Z,13.13
2018-10-15T23:31:51.942Z,12.87
2018-10-15T23:34:20.129Z,13.90
2018-10-15T23:36:48.685Z,12.87
2018-10-15T23:39:16.901Z,14.67
2018-10-15T23:41:45.146Z,13.10
2018-10-15T23:44:13.362Z,15.73
2018-10-15T23:46:42.011Z,11.97
2018-10-15T23:49:10.246Z,15.63
2018-10-15T23:51:38.526Z,16.60
2018-10-15T23:54:06.782Z,14.57
2018-10-15T23:56:35.010Z,13.97
2018-10-15T23:59:03.240Z,15.83
